sensor_id;sensor_type;location;lat;lon;timestamp;P1;durP1;ratioP1;P2;durP2;ratioP2
59970;SDS011;45825;45.434;9.116;2023-08-20T00:01:15;16.75;;;11.52;;
59970;SDS011;45825;45.434;9.116;2023-08-20T00:03:46;16.23;;;12.60;;
59970;SDS011;45825;45.434;9.116;2023-08-20T00:06:12;14.13;;;10.85;;
59970;SDS011;45825;45.434;9.116;2023-08-20T00:08:38;20.67;;;17.05;;
59970;SDS011;45825;45.434;9.116;2023-08-20T00:11:04;19.88;;;15.57;;
59970;SDS011;45825;45.434;9.116;2023-08-20T00:13:30;18.02;;;14.00;;
59970;SDS011;45825;45.434;9.116;2023-08-20T00:15:56;14.77;;;12.60;;
59970;SDS011;45825;45.434;9.116;2023-08-20T00:18:21;18.90;;;11.32;;
59970;SDS011;45825;45.434;9.116;2023-08-20T00:20:47;17.27;;;14.27;;
59970;SDS011;45825;45.434;9.116;2023-08-20T00:23:12;17.00;;;11.95;;
59970;SDS011;45825;45.434;9.116;2023-08-20T00:25:38;13.93;;;11.13;;
59970;SDS011;45825;45.434;9.116;2023-08-20T00:28:04;16.25;;;11.27;;
59970;SDS011;45825;45.434;9.116;2023-08-20T00:30:29;17.05;;;11.82;;
59970;SDS011;45825;45.434;9.116;2023-08-20T00:32:54;14.85;;;11.55;;
59970;SDS011;45825;45.434;9.116;2023-08-20T00:35:20;13.95;;;11.45;;
59970;SDS011;45825;45.434;9.116;2023-08-20T00:37:46;15.02;;;12.40;;
59970;SDS011;45825;45.434;9.116;2023-08-20T00:40:11;14.05;;;10.63;;
59970;SDS011;45825;45.434;9.116;2023-08-20T00:42:36;14.60;;;11.10;;
59970;SDS011;45825;45.434;9.116;2023-08-20T00:45:03;16.17;;;11.90;;
59970;SDS011;45825;45.434;9.116;2023-08-20T00:47:29;12.80;;;10.43;;
59970;SDS011;45825;45.434;9.116;2023-08-20T00:49:55;16.35;;;11.07;;
59970;SDS011;45825;45.434;9.116;2023-08-20T00:52:21;14.05;;;10.57;;
59970;SDS011;45825;45.434;9.116;2023-08-20T00:54:47;14.55;;;10.23;;
59970;SDS011;45825;45.434;9.116;2023-08-20T00:57:19;16.05;;;11.88;;
59970;SDS011;45825;45.434;9.116;2023-08-20T00:59:46;15.68;;;11.57;;
59970;SDS011;45825;45.434;9.116;2023-08-20T01:02:14;13.25;;;10.93;;
59970;SDS011;45825;45.434;9.116;2023-08-20T01:04:40;15.15;;;11.57;;
59970;SDS011;45825;45.434;9.116;2023-08-20T01:07:24;16.92;;;11.38;;
59970;SDS011;45825;45.434;9.116;2023-08-20T01:12:44;15.32;;;10.82;;
59970;SDS011;45825;45.434;9.116;2023-08-20T01:15:10;14.88;;;10.60;;
59970;SDS011;45825;45.434;9.116;2023-08-20T01:17:39;14.63;;;10.60;;
59970;SDS011;45825;45.434;9.116;2023-08-20T01:20:05;13.27;;;10.52;;
59970;SDS011;45825;45.434;9.116;2023-08-20T01:25:59;12.85;;;10.70;;
59970;SDS011;45825;45.434;9.116;2023-08-20T01:28:47;12.57;;;10.30;;
59970;SDS011;45825;45.434;9.116;2023-08-20T01:31:13;13.35;;;9.98;;
59970;SDS011;45825;45.434;9.116;2023-08-20T01:33:40;14.35;;;10.40;;
59970;SDS011;45825;45.434;9.116;2023-08-20T01:36:07;11.63;;;10.43;;
59970;SDS011;45825;45.434;9.116;2023-08-20T01:38:36;14.45;;;10.73;;
59970;SDS011;45825;45.434;9.116;2023-08-20T01:41:02;12.27;;;10.45;;
59970;SDS011;45825;45.434;9.116;2023-08-20T01:43:27;14.45;;;10.48;;
59970;SDS011;45825;45.434;9.116;2023-08-20T01:45:52;14.50;;;10.23;;
59970;SDS011;45825;45.434;9.116;2023-08-20T01:48:18;16.05;;;10.10;;
59970;SDS011;45825;45.434;9.116;2023-08-20T01:50:43;11.15;;;9.90;;
59970;SDS011;45825;45.434;9.116;2023-08-20T01:53:10;13.85;;;10.23;;
59970;SDS011;45825;45.434;9.116;2023-08-20T01:55:36;15.27;;;9.77;;
59970;SDS011;45825;45.434;9.116;2023-08-20T01:58:01;12.77;;;10.15;;
59970;SDS011;45825;45.434;9.116;2023-08-20T02:00:26;12.65;;;9.73;;
59970;SDS011;45825;45.434;9.116;2023-08-20T02:02:53;14.95;;;9.95;;
59970;SDS011;45825;45.434;9.116;2023-08-20T02:05:18;11.05;;;9.63;;
59970;SDS011;45825;45.434;9.116;2023-08-20T02:07:44;11.55;;;10.15;;
59970;SDS011;45825;45.434;9.116;2023-08-20T02:10:09;13.05;;;10.18;;
59970;SDS011;45825;45.434;9.116;2023-08-20T02:12:35;13.20;;;10.32;;
59970;SDS011;45825;45.434;9.116;2023-08-20T02:15:00;12.43;;;9.73;;
59970;SDS011;45825;45.434;9.116;2023-08-20T02:17:27;14.02;;;9.52;;
59970;SDS011;45825;45.434;9.116;2023-08-20T02:19:52;14.73;;;10.15;;
59970;SDS011;45825;45.434;9.116;2023-08-20T02:22:17;12.48;;;9.43;;
59970;SDS011;45825;45.434;9.116;2023-08-20T02:24:44;12.82;;;9.48;;
59970;SDS011;45825;45.434;9.116;2023-08-20T02:27:09;11.37;;;9.60;;
59970;SDS011;45825;45.434;9.116;2023-08-20T02:29:34;14.17;;;9.97;;
59970;SDS011;45825;45.434;9.116;2023-08-20T02:32:00;14.02;;;9.07;;
59970;SDS011;45825;45.434;9.116;2023-08-20T02:34:25;15.52;;;9.38;;
59970;SDS011;45825;45.434;9.116;2023-08-20T02:36:50;11.67;;;9.80;;
59970;SDS011;45825;45.434;9.116;2023-08-20T02:39:16;15.10;;;9.53;;
59970;SDS011;45825;45.434;9.116;2023-08-20T02:41:42;12.55;;;9.15;;
59970;SDS011;45825;45.434;9.116;2023-08-20T02:44:07;10.48;;;8.93;;
59970;SDS011;45825;45.434;9.116;2023-08-20T02:46:32;13.63;;;9.73;;
59970;SDS011;45825;45.434;9.116;2023-08-20T02:48:57;11.57;;;8.90;;
59970;SDS011;45825;45.434;9.116;2023-08-20T02:51:23;13.18;;;9.27;;
59970;SDS011;45825;45.434;9.116;2023-08-20T02:53:48;11.88;;;9.48;;
59970;SDS011;45825;45.434;9.116;2023-08-20T02:56:14;16.60;;;9.18;;
59970;SDS011;45825;45.434;9.116;2023-08-20T02:58:39;13.85;;;9.27;;
59970;SDS011;45825;45.434;9.116;2023-08-20T03:01:05;11.48;;;8.73;;
59970;SDS011;45825;45.434;9.116;2023-08-20T03:03:30;11.95;;;8.63;;
59970;SDS011;45825;45.434;9.116;2023-08-20T03:05:56;12.40;;;8.30;;
59970;SDS011;45825;45.434;9.116;2023-08-20T03:08:21;10.50;;;8.23;;
59970;SDS011;45825;45.434;9.116;2023-08-20T03:10:46;11.13;;;8.90;;
59970;SDS011;45825;45.434;9.116;2023-08-20T03:13:12;11.30;;;8.33;;
59970;SDS011;45825;45.434;9.116;2023-08-20T03:15:37;10.67;;;8.17;;
59970;SDS011;45825;45.434;9.116;2023-08-20T03:18:02;9.60;;;7.95;;
59970;SDS011;45825;45.434;9.116;2023-08-20T03:20:28;12.50;;;8.23;;
59970;SDS011;45825;45.434;9.116;2023-08-20T03:22:56;12.98;;;8.50;;
59970;SDS011;45825;45.434;9.116;2023-08-20T03:25:21;13.45;;;8.80;;
59970;SDS011;45825;45.434;9.116;2023-08-20T03:27:47;14.30;;;8.77;;
59970;SDS011;45825;45.434;9.116;2023-08-20T03:30:12;10.48;;;8.15;;
59970;SDS011;45825;45.434;9.116;2023-08-20T03:32:38;15.85;;;8.40;;
59970;SDS011;45825;45.434;9.116;2023-08-20T03:35:04;12.13;;;8.70;;
59970;SDS011;45825;45.434;9.116;2023-08-20T03:37:30;12.00;;;8.93;;
59970;SDS011;45825;45.434;9.116;2023-08-20T03:39:55;10.45;;;8.73;;
59970;SDS011;45825;45.434;9.116;2023-08-20T03:42:20;12.10;;;8.87;;
59970;SDS011;45825;45.434;9.116;2023-08-20T03:44:45;12.90;;;9.00;;
59970;SDS011;45825;45.434;9.116;2023-08-20T03:47:11;14.20;;;8.80;;
59970;SDS011;45825;45.434;9.116;2023-08-20T03:49:37;11.35;;;8.55;;
59970;SDS011;45825;45.434;9.116;2023-08-20T03:52:02;12.50;;;9.18;;
59970;SDS011;45825;45.434;9.116;2023-08-20T03:54:28;10.60;;;9.00;;
59970;SDS011;45825;45.434;9.116;2023-08-20T03:56:54;12.38;;;9.10;;
59970;SDS011;45825;45.434;9.116;2023-08-20T03:59:20;12.95;;;9.20;;
59970;SDS011;45825;45.434;9.116;2023-08-20T04:01:45;10.20;;;8.35;;
59970;SDS011;45825;45.434;9.116;2023-08-20T04:04:11;10.98;;;8.43;;
59970;SDS011;45825;45.434;9.116;2023-08-20T04:06:36;12.05;;;8.90;;
59970;SDS011;45825;45.434;9.116;2023-08-20T04:09:01;11.40;;;8.77;;
59970;SDS011;45825;45.434;9.116;2023-08-20T04:11:27;11.15;;;8.95;;
59970;SDS011;45825;45.434;9.116;2023-08-20T04:13:52;12.10;;;8.63;;
59970;SDS011;45825;45.434;9.116;2023-08-20T04:16:17;11.48;;;8.82;;
59970;SDS011;45825;45.434;9.116;2023-08-20T04:18:42;11.20;;;8.90;;
59970;SDS011;45825;45.434;9.116;2023-08-20T04:21:08;9.87;;;8.60;;
59970;SDS011;45825;45.434;9.116;2023-08-20T04:23:33;12.38;;;8.93;;
59970;SDS011;45825;45.434;9.116;2023-08-20T04:25:58;11.98;;;8.20;;
59970;SDS011;45825;45.434;9.116;2023-08-20T04:28:24;12.38;;;8.10;;
59970;SDS011;45825;45.434;9.116;2023-08-20T04:30:51;13.32;;;11.68;;
59970;SDS011;45825;45.434;9.116;2023-08-20T04:33:19;10.48;;;8.70;;
59970;SDS011;45825;45.434;9.116;2023-08-20T04:35:44;12.18;;;8.90;;
59970;SDS011;45825;45.434;9.116;2023-08-20T04:38:09;13.67;;;9.07;;
59970;SDS011;45825;45.434;9.116;2023-08-20T04:40:35;14.77;;;8.97;;
59970;SDS011;45825;45.434;9.116;2023-08-20T04:43:00;13.23;;;8.20;;
59970;SDS011;45825;45.434;9.116;2023-08-20T04:45:25;11.13;;;8.40;;
59970;SDS011;45825;45.434;9.116;2023-08-20T04:47:50;13.00;;;8.20;;
59970;SDS011;45825;45.434;9.116;2023-08-20T04:50:16;11.27;;;8.47;;
59970;SDS011;45825;45.434;9.116;2023-08-20T04:52:41;11.07;;;8.43;;
59970;SDS011;45825;45.434;9.116;2023-08-20T04:55:06;10.48;;;8.27;;
59970;SDS011;45825;45.434;9.116;2023-08-20T04:57:32;10.68;;;8.98;;
59970;SDS011;45825;45.434;9.116;2023-08-20T04:59:58;12.98;;;8.40;;
59970;SDS011;45825;45.434;9.116;2023-08-20T05:02:23;12.50;;;8.55;;
59970;SDS011;45825;45.434;9.116;2023-08-20T05:04:49;13.20;;;8.77;;
59970;SDS011;45825;45.434;9.116;2023-08-20T05:07:14;15.13;;;8.63;;
59970;SDS011;45825;45.434;9.116;2023-08-20T05:09:39;14.25;;;9.05;;
59970;SDS011;45825;45.434;9.116;2023-08-20T05:12:05;13.13;;;8.40;;
59970;SDS011;45825;45.434;9.116;2023-08-20T05:14:30;12.57;;;9.10;;
59970;SDS011;45825;45.434;9.116;2023-08-20T05:16:56;11.45;;;9.05;;
59970;SDS011;45825;45.434;9.116;2023-08-20T05:19:21;14.63;;;9.15;;
59970;SDS011;45825;45.434;9.116;2023-08-20T05:21:47;12.98;;;9.05;;
59970;SDS011;45825;45.434;9.116;2023-08-20T05:24:12;12.18;;;9.25;;
59970;SDS011;45825;45.434;9.116;2023-08-20T05:26:38;15.13;;;9.30;;
59970;SDS011;45825;45.434;9.116;2023-08-20T05:29:03;14.07;;;9.38;;
59970;SDS011;45825;45.434;9.116;2023-08-20T05:31:28;13.03;;;9.70;;
59970;SDS011;45825;45.434;9.116;2023-08-20T05:33:53;11.43;;;9.50;;
59970;SDS011;45825;45.434;9.116;2023-08-20T05:36:19;12.93;;;9.60;;
59970;SDS011;45825;45.434;9.116;2023-08-20T05:38:44;10.38;;;9.27;;
59970;SDS011;45825;45.434;9.116;2023-08-20T05:41:09;13.32;;;9.60;;
59970;SDS011;45825;45.434;9.116;2023-08-20T05:43:35;12.75;;;9.85;;
59970;SDS011;45825;45.434;9.116;2023-08-20T05:46:01;10.27;;;8.90;;
59970;SDS011;45825;45.434;9.116;2023-08-20T05:48:27;12.73;;;9.27;;
59970;SDS011;45825;45.434;9.116;2023-08-20T05:50:52;10.10;;;8.82;;
59970;SDS011;45825;45.434;9.116;2023-08-20T05:53:18;11.70;;;8.82;;
59970;SDS011;45825;45.434;9.116;2023-08-20T05:55:43;13.53;;;8.40;;
59970;SDS011;45825;45.434;9.116;2023-08-20T05:58:08;13.27;;;9.50;;
59970;SDS011;45825;45.434;9.116;2023-08-20T06:00:33;11.07;;;8.67;;
59970;SDS011;45825;45.434;9.116;2023-08-20T06:02:59;14.10;;;8.87;;
59970;SDS011;45825;45.434;9.116;2023-08-20T06:05:24;9.52;;;8.38;;
59970;SDS011;45825;45.434;9.116;2023-08-20T06:07:49;13.65;;;8.95;;
59970;SDS011;45825;45.434;9.116;2023-08-20T06:10:15;11.40;;;8.05;;
59970;SDS011;45825;45.434;9.116;2023-08-20T06:12:40;11.50;;;8.35;;
59970;SDS011;45825;45.434;9.116;2023-08-20T06:15:05;12.25;;;8.52;;
59970;SDS011;45825;45.434;9.116;2023-08-20T06:17:31;12.77;;;8.88;;
59970;SDS011;45825;45.434;9.116;2023-08-20T06:19:56;10.98;;;8.65;;
59970;SDS011;45825;45.434;9.116;2023-08-20T06:22:22;10.48;;;8.43;;
59970;SDS011;45825;45.434;9.116;2023-08-20T06:24:47;11.15;;;8.10;;
59970;SDS011;45825;45.434;9.116;2023-08-20T06:27:12;9.90;;;8.33;;
59970;SDS011;45825;45.434;9.116;2023-08-20T06:29:38;10.97;;;8.73;;
59970;SDS011;45825;45.434;9.116;2023-08-20T06:32:05;11.27;;;8.40;;
59970;SDS011;45825;45.434;9.116;2023-08-20T06:34:31;10.98;;;7.78;;
59970;SDS011;45825;45.434;9.116;2023-08-20T06:36:56;11.35;;;9.95;;
59970;SDS011;45825;45.434;9.116;2023-08-20T06:39:21;11.40;;;9.97;;
59970;SDS011;45825;45.434;9.116;2023-08-20T06:41:47;13.43;;;9.52;;
59970;SDS011;45825;45.434;9.116;2023-08-20T06:44:12;13.85;;;10.75;;
59970;SDS011;45825;45.434;9.116;2023-08-20T06:46:37;13.27;;;10.85;;
59970;SDS011;45825;45.434;9.116;2023-08-20T06:49:03;12.38;;;11.00;;
59970;SDS011;45825;45.434;9.116;2023-08-20T06:51:28;13.00;;;11.05;;
59970;SDS011;45825;45.434;9.116;2023-08-20T06:53:53;13.10;;;11.50;;
59970;SDS011;45825;45.434;9.116;2023-08-20T06:56:20;14.35;;;12.77;;
59970;SDS011;45825;45.434;9.116;2023-08-20T06:58:45;14.23;;;11.48;;
59970;SDS011;45825;45.434;9.116;2023-08-20T07:01:11;14.18;;;11.68;;
59970;SDS011;45825;45.434;9.116;2023-08-20T07:03:38;15.05;;;12.18;;
59970;SDS011;45825;45.434;9.116;2023-08-20T07:06:07;13.00;;;11.07;;
59970;SDS011;45825;45.434;9.116;2023-08-20T07:08:34;13.80;;;12.10;;
59970;SDS011;45825;45.434;9.116;2023-08-20T07:11:00;14.43;;;11.88;;
59970;SDS011;45825;45.434;9.116;2023-08-20T07:13:25;15.50;;;12.23;;
59970;SDS011;45825;45.434;9.116;2023-08-20T07:15:50;16.02;;;12.45;;
59970;SDS011;45825;45.434;9.116;2023-08-20T07:18:16;15.20;;;12.02;;
59970;SDS011;45825;45.434;9.116;2023-08-20T07:20:42;16.52;;;13.18;;
59970;SDS011;45825;45.434;9.116;2023-08-20T07:23:08;13.75;;;11.75;;
59970;SDS011;45825;45.434;9.116;2023-08-20T07:25:37;16.08;;;12.40;;
59970;SDS011;45825;45.434;9.116;2023-08-20T07:28:07;16.30;;;12.68;;
59970;SDS011;45825;45.434;9.116;2023-08-20T07:30:33;17.58;;;11.98;;
59970;SDS011;45825;45.434;9.116;2023-08-20T07:32:59;15.18;;;12.60;;
59970;SDS011;45825;45.434;9.116;2023-08-20T07:35:25;16.95;;;12.13;;
59970;SDS011;45825;45.434;9.116;2023-08-20T07:37:50;12.60;;;10.50;;
59970;SDS011;45825;45.434;9.116;2023-08-20T07:40:15;13.45;;;11.38;;
59970;SDS011;45825;45.434;9.116;2023-08-20T07:42:41;13.57;;;10.05;;
59970;SDS011;45825;45.434;9.116;2023-08-20T07:45:07;13.32;;;11.25;;
59970;SDS011;45825;45.434;9.116;2023-08-20T07:47:33;14.10;;;10.95;;
59970;SDS011;45825;45.434;9.116;2023-08-20T07:49:59;12.23;;;10.02;;
59970;SDS011;45825;45.434;9.116;2023-08-20T07:52:24;12.73;;;9.43;;
59970;SDS011;45825;45.434;9.116;2023-08-20T07:54:50;11.52;;;8.45;;
59970;SDS011;45825;45.434;9.116;2023-08-20T07:57:15;10.50;;;8.40;;
59970;SDS011;45825;45.434;9.116;2023-08-20T07:59:40;11.13;;;8.70;;
59970;SDS011;45825;45.434;9.116;2023-08-20T08:02:06;10.85;;;8.70;;
59970;SDS011;45825;45.434;9.116;2023-08-20T08:04:31;10.35;;;8.65;;
59970;SDS011;45825;45.434;9.116;2023-08-20T08:06:56;11.70;;;8.90;;
59970;SDS011;45825;45.434;9.116;2023-08-20T08:09:26;10.70;;;8.75;;
59970;SDS011;45825;45.434;9.116;2023-08-20T08:11:52;11.20;;;8.05;;
59970;SDS011;45825;45.434;9.116;2023-08-20T08:14:18;11.32;;;7.90;;
59970;SDS011;45825;45.434;9.116;2023-08-20T08:16:45;13.95;;;8.52;;
59970;SDS011;45825;45.434;9.116;2023-08-20T08:19:11;12.07;;;8.32;;
59970;SDS011;45825;45.434;9.116;2023-08-20T08:21:36;10.73;;;8.75;;
59970;SDS011;45825;45.434;9.116;2023-08-20T08:24:01;10.45;;;8.50;;
59970;SDS011;45825;45.434;9.116;2023-08-20T08:26:27;10.43;;;8.18;;
59970;SDS011;45825;45.434;9.116;2023-08-20T08:28:53;13.75;;;9.40;;
59970;SDS011;45825;45.434;9.116;2023-08-20T08:31:18;13.25;;;9.40;;
59970;SDS011;45825;45.434;9.116;2023-08-20T08:33:44;11.60;;;9.33;;
59970;SDS011;45825;45.434;9.116;2023-08-20T08:36:09;12.70;;;8.85;;
59970;SDS011;45825;45.434;9.116;2023-08-20T08:38:36;14.52;;;8.98;;
59970;SDS011;45825;45.434;9.116;2023-08-20T08:41:02;12.02;;;9.63;;
59970;SDS011;45825;45.434;9.116;2023-08-20T08:43:28;11.43;;;8.80;;
59970;SDS011;45825;45.434;9.116;2023-08-20T08:45:56;10.80;;;8.60;;
59970;SDS011;45825;45.434;9.116;2023-08-20T08:48:22;12.23;;;9.32;;
59970;SDS011;45825;45.434;9.116;2023-08-20T08:50:49;11.82;;;9.95;;
59970;SDS011;45825;45.434;9.116;2023-08-20T08:53:16;11.70;;;9.55;;
59970;SDS011;45825;45.434;9.116;2023-08-20T08:55:41;13.70;;;9.40;;
59970;SDS011;45825;45.434;9.116;2023-08-20T08:58:06;12.90;;;9.55;;
59970;SDS011;45825;45.434;9.116;2023-08-20T09:00:32;12.48;;;8.73;;
59970;SDS011;45825;45.434;9.116;2023-08-20T09:02:57;13.10;;;9.00;;
59970;SDS011;45825;45.434;9.116;2023-08-20T09:05:23;10.77;;;8.68;;
59970;SDS011;45825;45.434;9.116;2023-08-20T09:07:49;12.75;;;7.95;;
59970;SDS011;45825;45.434;9.116;2023-08-20T09:10:21;11.98;;;7.63;;
59970;SDS011;45825;45.434;9.116;2023-08-20T09:12:47;10.30;;;7.97;;
59970;SDS011;45825;45.434;9.116;2023-08-20T09:15:13;9.50;;;7.68;;
59970;SDS011;45825;45.434;9.116;2023-08-20T09:17:40;9.50;;;6.80;;
59970;SDS011;45825;45.434;9.116;2023-08-20T09:20:07;8.23;;;6.43;;
59970;SDS011;45825;45.434;9.116;2023-08-20T09:22:33;9.35;;;7.70;;
59970;SDS011;45825;45.434;9.116;2023-08-20T09:24:59;13.25;;;7.75;;
59970;SDS011;45825;45.434;9.116;2023-08-20T09:27:25;9.48;;;7.00;;
59970;SDS011;45825;45.434;9.116;2023-08-20T09:29:51;9.32;;;6.43;;
59970;SDS011;45825;45.434;9.116;2023-08-20T09:32:23;10.10;;;7.18;;
59970;SDS011;45825;45.434;9.116;2023-08-20T09:34:50;9.38;;;7.15;;
59970;SDS011;45825;45.434;9.116;2023-08-20T09:37:17;12.13;;;7.78;;
59970;SDS011;45825;45.434;9.116;2023-08-20T09:39:44;8.98;;;7.45;;
59970;SDS011;45825;45.434;9.116;2023-08-20T09:42:10;10.13;;;7.70;;
59970;SDS011;45825;45.434;9.116;2023-08-20T09:44:37;9.10;;;7.40;;
59970;SDS011;45825;45.434;9.116;2023-08-20T09:47:11;8.85;;;7.13;;
59970;SDS011;45825;45.434;9.116;2023-08-20T09:49:38;12.38;;;8.35;;
59970;SDS011;45825;45.434;9.116;2023-08-20T09:52:08;9.20;;;7.15;;
59970;SDS011;45825;45.434;9.116;2023-08-20T09:54:36;8.60;;;6.85;;
59970;SDS011;45825;45.434;9.116;2023-08-20T09:57:10;11.30;;;7.75;;
59970;SDS011;45825;45.434;9.116;2023-08-20T09:59:39;8.05;;;6.47;;
59970;SDS011;45825;45.434;9.116;2023-08-20T10:02:06;13.02;;;6.78;;
59970;SDS011;45825;45.434;9.116;2023-08-20T10:04:35;6.90;;;5.70;;
59970;SDS011;45825;45.434;9.116;2023-08-20T10:07:00;7.90;;;5.40;;
59970;SDS011;45825;45.434;9.116;2023-08-20T10:09:28;10.13;;;6.38;;
59970;SDS011;45825;45.434;9.116;2023-08-20T10:11:53;8.98;;;6.57;;
59970;SDS011;45825;45.434;9.116;2023-08-20T10:14:18;7.22;;;5.97;;
59970;SDS011;45825;45.434;9.116;2023-08-20T10:16:44;11.63;;;7.15;;
59970;SDS011;45825;45.434;9.116;2023-08-20T10:19:10;9.63;;;7.05;;
59970;SDS011;45825;45.434;9.116;2023-08-20T10:21:36;11.00;;;6.30;;
59970;SDS011;45825;45.434;9.116;2023-08-20T10:24:05;11.15;;;7.47;;
59970;SDS011;45825;45.434;9.116;2023-08-20T10:26:32;10.33;;;6.60;;
59970;SDS011;45825;45.434;9.116;2023-08-20T10:32:08;8.60;;;6.35;;
59970;SDS011;45825;45.434;9.116;2023-08-20T10:34:37;9.70;;;7.35;;
59970;SDS011;45825;45.434;9.116;2023-08-20T10:39:39;11.80;;;7.65;;
59970;SDS011;45825;45.434;9.116;2023-08-20T10:42:26;9.18;;;7.35;;
59970;SDS011;45825;45.434;9.116;2023-08-20T10:50:07;14.52;;;8.40;;
59970;SDS011;45825;45.434;9.116;2023-08-20T10:52:37;12.80;;;7.80;;
59970;SDS011;45825;45.434;9.116;2023-08-20T10:55:03;10.20;;;7.18;;
59970;SDS011;45825;45.434;9.116;2023-08-20T10:57:34;10.82;;;8.00;;
59970;SDS011;45825;45.434;9.116;2023-08-20T11:00:02;10.70;;;8.10;;
59970;SDS011;45825;45.434;9.116;2023-08-20T11:02:34;12.25;;;7.47;;
59970;SDS011;45825;45.434;9.116;2023-08-20T11:05:00;8.88;;;7.03;;
59970;SDS011;45825;45.434;9.116;2023-08-20T11:07:27;11.57;;;7.85;;
59970;SDS011;45825;45.434;9.116;2023-08-20T11:09:55;9.13;;;7.35;;
59970;SDS011;45825;45.434;9.116;2023-08-20T11:12:21;11.45;;;7.22;;
59970;SDS011;45825;45.434;9.116;2023-08-20T11:14:47;10.25;;;7.05;;
59970;SDS011;45825;45.434;9.116;2023-08-20T11:17:12;9.70;;;6.87;;
59970;SDS011;45825;45.434;9.116;2023-08-20T11:19:38;8.68;;;6.88;;
59970;SDS011;45825;45.434;9.116;2023-08-20T11:22:03;10.32;;;7.22;;
59970;SDS011;45825;45.434;9.116;2023-08-20T11:24:29;9.80;;;6.65;;
59970;SDS011;45825;45.434;9.116;2023-08-20T11:26:54;10.05;;;6.60;;
59970;SDS011;45825;45.434;9.116;2023-08-20T11:29:22;9.88;;;6.95;;
59970;SDS011;45825;45.434;9.116;2023-08-20T11:31:50;10.70;;;7.22;;
59970;SDS011;45825;45.434;9.116;2023-08-20T11:34:20;8.50;;;7.05;;
59970;SDS011;45825;45.434;9.116;2023-08-20T11:36:45;9.80;;;6.53;;
59970;SDS011;45825;45.434;9.116;2023-08-20T11:39:11;10.32;;;6.82;;
59970;SDS011;45825;45.434;9.116;2023-08-20T11:41:36;8.75;;;7.32;;
59970;SDS011;45825;45.434;9.116;2023-08-20T11:44:03;11.88;;;7.25;;
59970;SDS011;45825;45.434;9.116;2023-08-20T11:46:28;13.10;;;8.15;;
59970;SDS011;45825;45.434;9.116;2023-08-20T11:48:58;9.75;;;6.97;;
59970;SDS011;45825;45.434;9.116;2023-08-20T11:51:23;11.05;;;7.30;;
59970;SDS011;45825;45.434;9.116;2023-08-20T11:53:48;12.32;;;7.15;;
59970;SDS011;45825;45.434;9.116;2023-08-20T11:56:14;11.82;;;7.93;;
59970;SDS011;45825;45.434;9.116;2023-08-20T11:58:39;9.55;;;6.55;;
59970;SDS011;45825;45.434;9.116;2023-08-20T12:01:07;9.03;;;7.00;;
59970;SDS011;45825;45.434;9.116;2023-08-20T12:03:33;11.07;;;7.00;;
59970;SDS011;45825;45.434;9.116;2023-08-20T12:05:58;9.07;;;7.28;;
59970;SDS011;45825;45.434;9.116;2023-08-20T12:08:23;8.23;;;6.73;;
59970;SDS011;45825;45.434;9.116;2023-08-20T12:10:48;9.73;;;6.83;;
59970;SDS011;45825;45.434;9.116;2023-08-20T12:13:14;9.48;;;7.00;;
59970;SDS011;45825;45.434;9.116;2023-08-20T12:15:39;9.88;;;6.50;;
59970;SDS011;45825;45.434;9.116;2023-08-20T12:18:05;11.20;;;6.85;;
59970;SDS011;45825;45.434;9.116;2023-08-20T12:20:32;9.65;;;6.93;;
59970;SDS011;45825;45.434;9.116;2023-08-20T12:23:01;8.50;;;6.25;;
59970;SDS011;45825;45.434;9.116;2023-08-20T12:25:31;9.77;;;6.82;;
59970;SDS011;45825;45.434;9.116;2023-08-20T12:27:59;11.25;;;6.82;;
59970;SDS011;45825;45.434;9.116;2023-08-20T12:30:25;10.25;;;6.68;;
59970;SDS011;45825;45.434;9.116;2023-08-20T12:32:50;10.53;;;6.87;;
59970;SDS011;45825;45.434;9.116;2023-08-20T12:35:15;8.80;;;6.70;;
59970;SDS011;45825;45.434;9.116;2023-08-20T12:37:41;7.90;;;5.72;;
59970;SDS011;45825;45.434;9.116;2023-08-20T12:40:06;11.90;;;7.10;;
59970;SDS011;45825;45.434;9.116;2023-08-20T12:42:37;10.82;;;6.40;;
59970;SDS011;45825;45.434;9.116;2023-08-20T12:45:04;11.15;;;6.78;;
59970;SDS011;45825;45.434;9.116;2023-08-20T12:47:31;8.82;;;7.00;;
59970;SDS011;45825;45.434;9.116;2023-08-20T12:49:56;9.85;;;6.70;;
59970;SDS011;45825;45.434;9.116;2023-08-20T12:52:21;12.18;;;7.32;;
59970;SDS011;45825;45.434;9.116;2023-08-20T12:54:47;9.07;;;6.70;;
59970;SDS011;45825;45.434;9.116;2023-08-20T12:57:12;10.45;;;6.72;;
59970;SDS011;45825;45.434;9.116;2023-08-20T12:59:37;9.87;;;6.73;;
59970;SDS011;45825;45.434;9.116;2023-08-20T13:02:02;9.33;;;6.73;;
59970;SDS011;45825;45.434;9.116;2023-08-20T13:04:28;11.35;;;6.93;;
59970;SDS011;45825;45.434;9.116;2023-08-20T13:06:54;12.75;;;7.80;;
59970;SDS011;45825;45.434;9.116;2023-08-20T13:09:19;9.88;;;6.82;;
59970;SDS011;45825;45.434;9.116;2023-08-20T13:11:45;11.55;;;6.97;;
59970;SDS011;45825;45.434;9.116;2023-08-20T13:14:13;13.40;;;7.75;;
59970;SDS011;45825;45.434;9.116;2023-08-20T13:16:39;13.65;;;7.00;;
59970;SDS011;45825;45.434;9.116;2023-08-20T13:19:04;10.13;;;6.60;;
59970;SDS011;45825;45.434;9.116;2023-08-20T13:21:30;11.15;;;6.75;;
59970;SDS011;45825;45.434;9.116;2023-08-20T13:23:55;10.83;;;6.23;;
59970;SDS011;45825;45.434;9.116;2023-08-20T13:26:21;9.57;;;6.67;;
59970;SDS011;45825;45.434;9.116;2023-08-20T13:28:47;9.55;;;6.57;;
59970;SDS011;45825;45.434;9.116;2023-08-20T13:31:13;10.20;;;6.70;;
59970;SDS011;45825;45.434;9.116;2023-08-20T13:33:39;10.23;;;6.75;;
59970;SDS011;45825;45.434;9.116;2023-08-20T13:36:05;8.98;;;6.70;;
59970;SDS011;45825;45.434;9.116;2023-08-20T13:38:30;10.05;;;7.15;;
59970;SDS011;45825;45.434;9.116;2023-08-20T13:40:56;11.05;;;7.63;;
59970;SDS011;45825;45.434;9.116;2023-08-20T13:43:22;10.70;;;7.00;;
59970;SDS011;45825;45.434;9.116;2023-08-20T13:45:48;11.00;;;7.30;;
59970;SDS011;45825;45.434;9.116;2023-08-20T13:48:13;12.40;;;7.00;;
59970;SDS011;45825;45.434;9.116;2023-08-20T13:50:38;9.07;;;6.83;;
59970;SDS011;45825;45.434;9.116;2023-08-20T13:53:04;9.82;;;7.00;;
59970;SDS011;45825;45.434;9.116;2023-08-20T13:55:29;9.30;;;6.77;;
59970;SDS011;45825;45.434;9.116;2023-08-20T13:57:56;11.57;;;6.82;;
59970;SDS011;45825;45.434;9.116;2023-08-20T14:00:21;9.07;;;6.72;;
59970;SDS011;45825;45.434;9.116;2023-08-20T14:02:46;8.85;;;7.15;;
59970;SDS011;45825;45.434;9.116;2023-08-20T14:05:12;11.95;;;7.22;;
59970;SDS011;45825;45.434;9.116;2023-08-20T14:07:37;12.27;;;7.10;;
59970;SDS011;45825;45.434;9.116;2023-08-20T14:10:03;11.57;;;7.07;;
59970;SDS011;45825;45.434;9.116;2023-08-20T14:12:29;11.70;;;6.78;;
59970;SDS011;45825;45.434;9.116;2023-08-20T14:14:55;10.30;;;6.70;;
59970;SDS011;45825;45.434;9.116;2023-08-20T14:17:20;11.23;;;7.22;;
59970;SDS011;45825;45.434;9.116;2023-08-20T14:19:46;9.10;;;6.57;;
59970;SDS011;45825;45.434;9.116;2023-08-20T14:22:11;10.07;;;6.97;;
59970;SDS011;45825;45.434;9.116;2023-08-20T14:24:36;9.77;;;6.20;;
59970;SDS011;45825;45.434;9.116;2023-08-20T14:27:02;8.95;;;6.68;;
59970;SDS011;45825;45.434;9.116;2023-08-20T14:29:27;11.90;;;7.15;;
59970;SDS011;45825;45.434;9.116;2023-08-20T14:31:53;10.98;;;6.63;;
59970;SDS011;45825;45.434;9.116;2023-08-20T14:34:18;12.38;;;6.97;;
59970;SDS011;45825;45.434;9.116;2023-08-20T14:36:44;11.73;;;8.00;;
59970;SDS011;45825;45.434;9.116;2023-08-20T14:39:09;10.90;;;6.85;;
59970;SDS011;45825;45.434;9.116;2023-08-20T14:41:35;10.13;;;6.65;;
59970;SDS011;45825;45.434;9.116;2023-08-20T14:44:00;10.60;;;6.57;;